createdAt,value
2022-10-11T00:00:21.419Z,87.07
2022-10-11T00:02:48.795Z,87.20
2022-10-11T00:05:16.250Z,87.50
2022-10-11T00:07:43.658Z,88.53
2022-10-11T00:10:11.237Z,88.46
2022-10-11T00:12:38.772Z,87.83
2022-10-11T00:15:07.296Z,87.71
2022-10-11T00:17:35.710Z,87.57
2022-10-11T00:20:03.104Z,87.26
2022-10-11T00:22:30.419Z,87.40
2022-10-11T00:24:59.055Z,88.01
2022-10-11T00:27:26.438Z,88.15
2022-10-11T00:29:54.044Z,88.12
2022-10-11T00:32:21.439Z,88.16
2022-10-11T00:34:48.957Z,87.82
2022-10-11T00:37:16.446Z,87.68
2022-10-11T00:39:43.821Z,88.10
2022-10-11T00:42:16.708Z,87.23
2022-10-11T00:44:47.006Z,87.69
2022-10-11T00:47:24.857Z,86.57
2022-10-11T00:49:59.574Z,86.75
2022-10-11T00:52:41.141Z,86.27
2022-10-11T00:55:19.048Z,85.16
2022-10-11T00:57:49.963Z,85.01
2022-10-11T01:00:17.300Z,85.75
2022-10-11T01:02:44.834Z,86.59
2022-10-11T01:05:32.455Z,86.54
2022-10-11T01:08:01.012Z,87.30
2022-10-11T01:10:29.220Z,87.43
2022-10-11T01:13:00.557Z,87.65
2022-10-11T01:16:00.034Z,87.88
2022-10-11T01:19:00.037Z,88.69
2022-10-11T01:21:49.004Z,90.05
2022-10-11T01:24:26.455Z,89.50
2022-10-11T01:27:11.817Z,90.13
2022-10-11T01:29:57.506Z,90.25
2022-10-11T01:32:34.304Z,91.14
2022-10-11T01:35:17.532Z,91.66
2022-10-11T01:37:51.402Z,91.60
2022-10-11T01:40:42.649Z,92.21
2022-10-11T01:43:10.713Z,93.14
2022-10-11T01:45:39.357Z,92.62
2022-10-11T01:48:12.941Z,92.66
2022-10-11T01:50:48.051Z,93.83
2022-10-11T01:53:48.625Z,93.52
2022-10-11T01:56:35.299Z,93.63
2022-10-11T01:59:31.929Z,93.06
2022-10-11T02:02:22.621Z,93.05
2022-10-11T02:05:03.047Z,93.81
2022-10-11T02:07:50.570Z,93.64
2022-10-11T02:10:25.010Z,94.03
2022-10-11T02:13:02.789Z,94.56
2022-10-11T02:15:32.523Z,94.48
2022-10-11T02:18:03.108Z,95.16
2022-10-11T02:20:34.652Z,95.65
2022-10-11T02:23:13.926Z,93.57
2022-10-11T02:25:43.190Z,90.70
2022-10-11T02:28:17.215Z,90.66
2022-10-11T02:30:47.531Z,88.00
2022-10-11T02:33:18.795Z,85.65
2022-10-11T02:35:54.756Z,88.14
2022-10-11T02:38:31.147Z,86.04
2022-10-11T02:41:12.802Z,86.73
2022-10-11T02:43:47.231Z,88.80
2022-10-11T02:46:17.584Z,89.11
2022-10-11T02:48:45.059Z,88.03
2022-10-11T02:51:14.556Z,88.23
2022-10-11T02:53:41.837Z,88.97
2022-10-11T02:56:09.191Z,89.29
2022-10-11T02:58:36.518Z,88.88
2022-10-11T03:01:04.069Z,87.98
2022-10-11T03:03:31.438Z,87.92
2022-10-11T03:06:03.958Z,86.42
2022-10-11T03:08:31.828Z,85.62
2022-10-11T03:10:59.156Z,84.92
2022-10-11T03:13:26.646Z,84.13
2022-10-11T03:16:02.684Z,82.90
2022-10-11T03:18:31.256Z,82.27
2022-10-11T03:20:58.675Z,83.25
2022-10-11T03:23:25.966Z,83.57
2022-10-11T03:25:53.364Z,82.55
2022-10-11T03:28:21.116Z,79.08
2022-10-11T03:30:49.716Z,79.24
2022-10-11T03:33:17.719Z,78.10
2022-10-11T03:35:46.214Z,77.23
2022-10-11T03:38:15.161Z,77.96
2022-10-11T03:40:43.682Z,78.24
2022-10-11T03:43:11.921Z,78.88
2022-10-11T03:45:39.715Z,79.41
2022-10-11T03:48:07.176Z,79.71
2022-10-11T03:50:34.749Z,78.11
2022-10-11T03:53:02.236Z,78.33
2022-10-11T03:55:29.532Z,78.39
2022-10-11T03:57:56.950Z,78.48
2022-10-11T04:00:24.376Z,78.65
2022-10-11T04:02:51.693Z,78.42
2022-10-11T04:05:19.081Z,77.50
2022-10-11T04:07:46.318Z,77.28
2022-10-11T04:10:14.823Z,77.62
2022-10-11T04:12:42.233Z,77.64
2022-10-11T04:15:14.802Z,77.96
2022-10-11T04:17:42.390Z,77.54
2022-10-11T04:20:10.165Z,77.88
2022-10-11T04:22:41.536Z,78.49
2022-10-11T04:25:09.655Z,77.92
2022-10-11T04:27:37.014Z,76.71
2022-10-11T04:30:04.786Z,77.35
2022-10-11T04:32:32.164Z,78.20
2022-10-11T04:34:59.447Z,78.80
2022-10-11T04:37:26.770Z,78.36
2022-10-11T04:39:54.057Z,77.99
2022-10-11T04:42:21.547Z,78.13
2022-10-11T04:44:48.921Z,77.75
2022-10-11T04:47:16.107Z,77.24
2022-10-11T04:49:43.470Z,77.99
2022-10-11T04:52:10.713Z,77.04
2022-10-11T04:54:38.139Z,77.81
2022-10-11T04:57:05.901Z,79.03
2022-10-11T04:59:33.296Z,80.85
2022-10-11T05:02:00.686Z,80.89
2022-10-11T05:04:28.459Z,82.70
2022-10-11T05:06:55.826Z,83.45
2022-10-11T05:09:23.457Z,84.25
2022-10-11T05:11:50.839Z,84.04
2022-10-11T05:14:18.239Z,84.47
2022-10-11T05:16:45.516Z,84.09
2022-10-11T05:19:12.960Z,83.68
2022-10-11T05:21:40.395Z,83.57
2022-10-11T05:24:08.283Z,83.46
2022-10-11T05:26:35.888Z,83.29
2022-10-11T05:29:03.871Z,82.99
2022-10-11T05:31:31.332Z,83.26
2022-10-11T05:33:58.661Z,85.04
2022-10-11T05:36:26.316Z,86.05
2022-10-11T05:38:53.588Z,86.83
2022-10-11T05:41:20.952Z,87.77
2022-10-11T05:43:48.416Z,88.74
2022-10-11T05:46:15.836Z,89.38
2022-10-11T05:48:43.166Z,89.37
2022-10-11T05:51:12.683Z,89.82
2022-10-11T05:53:40.196Z,90.07
2022-10-11T05:56:19.809Z,90.86
2022-10-11T05:58:47.517Z,91.38
2022-10-11T06:01:32.748Z,92.13
2022-10-11T06:04:00.387Z,92.27
2022-10-11T06:06:27.801Z,92.68
2022-10-11T06:08:55.578Z,93.62
2022-10-11T06:11:26.251Z,94.76
2022-10-11T06:13:55.445Z,95.17
2022-10-11T06:16:22.856Z,95.52
2022-10-11T06:18:53.788Z,95.30
2022-10-11T06:21:23.564Z,95.10
2022-10-11T06:23:54.569Z,91.54
2022-10-11T06:26:24.561Z,91.81
2022-10-11T06:28:52.001Z,90.74
2022-10-11T06:31:19.666Z,90.96
2022-10-11T06:33:46.968Z,89.99
2022-10-11T06:36:15.183Z,91.68
2022-10-11T06:38:45.256Z,91.38
2022-10-11T06:41:25.402Z,89.17
2022-10-11T06:43:53.007Z,90.62
2022-10-11T06:46:21.725Z,91.71
2022-10-11T06:48:49.479Z,92.62
2022-10-11T06:51:21.405Z,93.50
2022-10-11T06:53:53.681Z,94.34
2022-10-11T06:56:21.602Z,95.52
2022-10-11T06:58:48.996Z,95.54
2022-10-11T07:01:20.291Z,95.17
2022-10-11T07:03:48.870Z,93.39
2022-10-11T07:06:18.972Z,91.28
2022-10-11T07:08:47.202Z,92.40
2022-10-11T07:11:20.895Z,92.42
2022-10-11T07:13:53.877Z,92.23
2022-10-11T07:16:22.210Z,93.10
2022-10-11T07:18:59.543Z,92.31
2022-10-11T07:21:29.365Z,92.20
2022-10-11T07:23:56.865Z,91.15
2022-10-11T07:26:24.178Z,90.76
2022-10-11T07:28:51.998Z,87.94
2022-10-11T07:31:22.742Z,82.56
2022-10-11T07:33:50.386Z,80.33
2022-10-11T07:36:17.932Z,78.80
2022-10-11T07:38:47.275Z,79.61
2022-10-11T07:41:14.891Z,78.94
2022-10-11T07:43:43.780Z,77.27
2022-10-11T07:46:11.580Z,77.69
2022-10-11T07:48:40.375Z,76.81
2022-10-11T07:51:15.524Z,77.55
2022-10-11T07:53:45.450Z,75.54
2022-10-11T07:56:16.030Z,75.42
2022-10-11T07:58:43.908Z,75.49
2022-10-11T08:01:12.176Z,75.70
2022-10-11T08:03:39.698Z,76.84
2022-10-11T08:06:09.996Z,76.38
2022-10-11T08:08:38.263Z,75.74
2022-10-11T08:11:06.488Z,76.00
2022-10-11T08:13:34.542Z,78.54
2022-10-11T08:16:09.953Z,77.98
2022-10-11T08:18:37.290Z,77.96
2022-10-11T08:21:12.333Z,75.65
2022-10-11T08:23:40.194Z,78.92
2022-10-11T08:26:08.547Z,80.31
2022-10-11T08:28:36.570Z,79.55
2022-10-11T08:31:04.482Z,78.76
2022-10-11T08:33:31.893Z,78.31
2022-10-11T08:35:59.215Z,78.55
2022-10-11T08:38:26.503Z,77.80
2022-10-11T08:40:56.616Z,77.69
2022-10-11T08:43:45.383Z,78.34
2022-10-11T08:46:15.477Z,76.76
2022-10-11T08:48:50.432Z,78.04
2022-10-11T08:51:26.603Z,75.82
2022-10-11T08:54:12.722Z,76.22
2022-10-11T08:56:43.431Z,75.38
2022-10-11T08:59:13.779Z,74.50
2022-10-11T09:01:50.409Z,73.14
2022-10-11T09:04:18.592Z,71.52
2022-10-11T09:07:01.300Z,71.74
2022-10-11T09:10:08.108Z,71.00
2022-10-11T09:12:50.343Z,70.62
2022-10-11T09:15:26.721Z,69.32
2022-10-11T09:18:02.549Z,68.89
2022-10-11T09:20:59.568Z,70.46
2022-10-11T09:23:59.932Z,70.56
2022-10-11T09:26:43.823Z,70.76
2022-10-11T09:29:50.739Z,70.92
2022-10-11T09:32:23.148Z,69.25
2022-10-11T09:35:02.563Z,70.78
2022-10-11T09:37:42.545Z,70.49
2022-10-11T09:40:38.910Z,70.97
2022-10-11T09:43:06.337Z,71.16
2022-10-11T09:45:33.640Z,72.15
2022-10-11T09:48:03.202Z,73.31
2022-10-11T09:50:32.061Z,75.83
2022-10-11T09:53:03.643Z,77.68
2022-10-11T09:55:33.685Z,78.65
2022-10-11T09:58:05.058Z,77.98
2022-10-11T10:00:34.274Z,78.75
2022-10-11T10:03:04.113Z,78.96
2022-10-11T10:05:34.233Z,79.93
2022-10-11T10:08:23.676Z,80.63
2022-10-11T10:10:59.390Z,80.84
2022-10-11T10:13:43.648Z,80.60
2022-10-11T10:16:23.156Z,78.59
2022-10-11T10:18:54.781Z,76.36
2022-10-11T10:21:45.188Z,76.32
2022-10-11T10:24:40.518Z,75.23
2022-10-11T10:27:18.405Z,73.35
2022-10-11T10:30:09.303Z,72.71
2022-10-11T10:32:48.532Z,71.82
2022-10-11T10:35:35.082Z,71.06
2022-10-11T10:38:30.671Z,72.09
2022-10-11T10:41:01.856Z,72.37
2022-10-11T10:43:38.141Z,71.58
2022-10-11T10:46:29.588Z,66.26
2022-10-11T10:49:54.686Z,66.06
2022-10-11T10:52:28.540Z,65.38
2022-10-11T10:55:20.028Z,64.13
2022-10-11T10:58:12.899Z,65.02
2022-10-11T11:01:10.878Z,64.30
2022-10-11T11:03:46.917Z,64.10
2022-10-11T11:06:37.339Z,65.89
2022-10-11T11:09:14.109Z,65.08
2022-10-11T11:11:50.452Z,64.90
2022-10-11T11:14:44.279Z,64.45
2022-10-11T11:17:24.431Z,65.57
2022-10-11T11:20:03.388Z,65.94
2022-10-11T11:23:09.341Z,65.49
2022-10-11T11:26:01.453Z,66.26
2022-10-11T11:29:11.653Z,67.69
2022-10-11T11:31:59.549Z,67.67
2022-10-11T11:34:38.630Z,68.08
2022-10-11T11:37:22.253Z,70.19
2022-10-11T11:39:52.657Z,70.37
2022-10-11T11:42:26.569Z,72.59
2022-10-11T11:44:54.145Z,72.24
2022-10-11T11:47:26.981Z,72.97
2022-10-11T11:49:58.886Z,75.46
2022-10-11T11:52:32.138Z,78.23
2022-10-11T11:55:10.934Z,78.19
2022-10-11T11:58:13.393Z,78.31
2022-10-11T12:00:52.385Z,78.93
2022-10-11T12:03:26.473Z,79.64
2022-10-11T12:06:12.728Z,81.10
2022-10-11T12:08:42.936Z,82.83
2022-10-11T12:11:21.357Z,85.12
2022-10-11T12:13:51.270Z,85.62
2022-10-11T12:16:19.730Z,86.51
2022-10-11T12:19:02.370Z,85.84
2022-10-11T12:21:43.652Z,85.00
2022-10-11T12:24:51.569Z,86.16
2022-10-11T12:27:41.325Z,89.00
2022-10-11T12:30:54.780Z,90.00
2022-10-11T12:33:33.316Z,89.97
2022-10-11T12:36:22.126Z,90.27
2022-10-11T12:39:21.511Z,90.59
2022-10-11T12:41:51.795Z,90.77
2022-10-11T12:44:19.023Z,91.17
2022-10-11T12:46:55.234Z,91.13
2022-10-11T12:49:44.408Z,90.09
2022-10-11T12:52:17.960Z,90.89
2022-10-11T12:55:03.740Z,91.94
2022-10-11T12:57:49.591Z,92.45
2022-10-11T13:00:29.930Z,92.64
2022-10-11T13:03:01.715Z,92.98
2022-10-11T13:05:52.371Z,92.72
2022-10-11T13:08:33.957Z,93.28
2022-10-11T13:11:12.242Z,93.29
2022-10-11T13:13:44.370Z,94.59
2022-10-11T13:16:18.507Z,95.43
2022-10-11T13:18:49.268Z,97.11
2022-10-11T13:21:32.121Z,97.73
2022-10-11T13:24:02.936Z,99.90
2022-10-11T13:26:31.818Z,100.00
2022-10-11T13:29:00.829Z,100.00
2022-10-11T13:31:28.441Z,100.00
2022-10-11T13:33:59.349Z,100.00
2022-10-11T13:36:27.787Z,100.00
2022-10-11T13:38:58.549Z,100.00
2022-10-11T13:41:28.362Z,100.00
2022-10-11T13:43:57.660Z,100.00
2022-10-11T13:46:28.187Z,98.99
2022-10-11T13:49:37.236Z,98.10
2022-10-11T13:52:28.398Z,98.21
2022-10-11T13:55:08.034Z,96.55
2022-10-11T13:57:38.242Z,96.27
2022-10-11T14:00:10.901Z,96.90
2022-10-11T14:02:39.346Z,97.99
2022-10-11T14:05:07.007Z,97.08
2022-10-11T14:07:39.133Z,97.17
2022-10-11T14:10:07.670Z,97.10
2022-10-11T14:12:44.574Z,97.67
2022-10-11T14:15:38.417Z,97.76
2022-10-11T14:18:37.565Z,98.30
2022-10-11T14:21:20.179Z,99.48
2022-10-11T14:23:51.753Z,99.08
2022-10-11T14:26:20.606Z,98.46
2022-10-11T14:28:59.779Z,97.23
2022-10-11T14:31:30.462Z,96.32
2022-10-11T14:33:58.631Z,95.36
2022-10-11T14:36:26.326Z,95.01
2022-10-11T14:38:54.281Z,94.60
2022-10-11T14:41:22.019Z,94.27
2022-10-11T14:43:49.833Z,94.58
2022-10-11T14:46:27.630Z,94.23
2022-10-11T14:48:56.584Z,93.91
2022-10-11T14:51:31.561Z,93.15
2022-10-11T14:53:59.095Z,92.22
2022-10-11T14:56:26.371Z,91.79
2022-10-11T14:58:53.712Z,91.83
2022-10-11T15:01:21.229Z,92.06
2022-10-11T15:03:48.809Z,91.95
2022-10-11T15:06:30.366Z,92.78
2022-10-11T15:08:57.919Z,92.91
2022-10-11T15:11:26.767Z,93.44
2022-10-11T15:13:54.272Z,93.23
2022-10-11T15:16:22.433Z,93.90
2022-10-11T15:18:52.889Z,94.13
2022-10-11T15:21:22.613Z,94.89
2022-10-11T15:23:51.020Z,95.22
2022-10-11T15:26:24.192Z,93.53
2022-10-11T15:28:53.574Z,95.02
2022-10-11T15:31:21.757Z,95.19
2022-10-11T15:33:49.818Z,95.45
2022-10-11T15:36:22.550Z,97.42
2022-10-11T15:38:50.185Z,96.70
2022-10-11T15:41:19.154Z,95.63
2022-10-11T15:43:48.545Z,97.52
2022-10-11T15:46:22.351Z,97.19
2022-10-11T15:48:51.350Z,97.81
2022-10-11T15:51:19.434Z,97.82
2022-10-11T15:53:47.448Z,99.98
2022-10-11T15:56:18.896Z,99.86
2022-10-11T15:58:46.755Z,96.55
2022-10-11T16:01:17.728Z,94.87
2022-10-11T16:03:49.032Z,94.06
2022-10-11T16:06:17.548Z,93.03
2022-10-11T16:08:45.226Z,92.36
2022-10-11T16:11:13.501Z,91.89
2022-10-11T16:13:41.138Z,91.95
2022-10-11T16:16:09.942Z,91.40
2022-10-11T16:18:37.840Z,90.69
2022-10-11T16:21:11.322Z,89.88
2022-10-11T16:23:39.248Z,90.64
2022-10-11T16:26:10.017Z,91.72
2022-10-11T16:28:38.102Z,92.68
2022-10-11T16:31:10.501Z,93.47
2022-10-11T16:33:46.270Z,93.24
2022-10-11T16:36:51.770Z,94.19
2022-10-11T16:39:20.088Z,94.65
2022-10-11T16:41:47.931Z,95.76
2022-10-11T16:44:17.027Z,95.43
2022-10-11T16:46:48.774Z,95.76
2022-10-11T16:49:18.091Z,96.36
2022-10-11T16:51:45.618Z,95.46
2022-10-11T16:54:16.601Z,95.24
2022-10-11T16:56:47.014Z,96.22
2022-10-11T16:59:14.367Z,95.68
2022-10-11T17:01:42.080Z,96.14
2022-10-11T17:04:09.999Z,96.13
2022-10-11T17:06:38.008Z,96.03
2022-10-11T17:09:05.498Z,97.22
2022-10-11T17:11:33.302Z,97.87
2022-10-11T17:14:02.042Z,98.53
2022-10-11T17:16:29.800Z,98.61
2022-10-11T17:18:57.168Z,97.35
2022-10-11T17:21:24.720Z,97.55
2022-10-11T17:23:52.241Z,98.55
2022-10-11T17:26:25.090Z,100.00
2022-10-11T17:28:54.953Z,100.00
2022-10-11T17:31:23.117Z,100.00
2022-10-11T17:33:51.199Z,100.00
2022-10-11T17:36:24.905Z,100.00
2022-10-11T17:38:56.139Z,100.00
2022-10-11T17:41:29.468Z,100.00
2022-10-11T17:43:59.701Z,100.00
2022-10-11T17:46:28.424Z,100.00
2022-10-11T17:48:55.976Z,100.00
2022-10-11T17:51:23.542Z,100.00
2022-10-11T17:53:51.758Z,100.00
2022-10-11T17:56:26.741Z,100.00
2022-10-11T17:58:57.430Z,100.00
2022-10-11T18:01:28.324Z,100.00
2022-10-11T18:04:04.974Z,100.00
2022-10-11T18:06:38.374Z,100.00
2022-10-11T18:09:06.281Z,100.00
2022-10-11T18:11:33.692Z,100.00
2022-10-11T18:14:01.963Z,100.00
2022-10-11T18:16:30.725Z,100.00
2022-10-11T18:18:58.985Z,100.00
2022-10-11T18:21:33.632Z,100.00
2022-10-11T18:24:08.178Z,100.00
2022-10-11T18:26:35.666Z,100.00
2022-10-11T18:29:04.093Z,100.00
2022-10-11T18:31:34.508Z,100.00
2022-10-11T18:34:03.369Z,100.00
2022-10-11T18:36:32.198Z,100.00
2022-10-11T18:39:03.170Z,100.00
2022-10-11T18:41:32.375Z,100.00
2022-10-11T18:44:02.648Z,100.00
2022-10-11T18:46:30.863Z,100.00
2022-10-11T18:48:59.884Z,100.00
2022-10-11T18:51:33.839Z,100.00
2022-10-11T18:54:01.765Z,100.00
2022-10-11T18:56:30.716Z,100.00
2022-10-11T18:58:59.402Z,100.00
2022-10-11T19:01:30.321Z,100.00
2022-10-11T19:04:00.108Z,100.00
2022-10-11T19:06:49.304Z,100.00
2022-10-11T19:09:22.686Z,100.00
2022-10-11T19:11:51.446Z,100.00
2022-10-11T19:14:21.017Z,100.00
2022-10-11T19:16:51.807Z,100.00
2022-10-11T19:19:37.319Z,100.00
2022-10-11T19:22:05.091Z,100.00
2022-10-11T19:24:32.847Z,100.00
2022-10-11T19:27:02.796Z,100.00
2022-10-11T19:29:31.306Z,100.00
2022-10-11T19:32:01.117Z,100.00
2022-10-11T19:34:29.078Z,100.00
2022-10-11T19:36:57.290Z,100.00
2022-10-11T19:39:25.038Z,100.00
2022-10-11T19:41:52.937Z,100.00
2022-10-11T19:44:20.477Z,100.00
2022-10-11T19:46:52.353Z,100.00
2022-10-11T19:49:24.287Z,100.00
2022-10-11T19:51:52.199Z,100.00
2022-10-11T19:54:20.076Z,100.00
2022-10-11T19:56:48.082Z,100.00
2022-10-11T19:59:16.059Z,100.00
2022-10-11T20:01:47.917Z,100.00
2022-10-11T20:04:39.508Z,100.00
2022-10-11T20:07:06.073Z,100.00
2022-10-11T20:09:33.578Z,100.00
2022-10-11T20:12:01.070Z,100.00
2022-10-11T20:14:28.520Z,100.00
2022-10-11T20:16:55.793Z,100.00
2022-10-11T20:19:29.333Z,100.00
2022-10-11T20:21:58.193Z,100.00
2022-10-11T20:24:27.660Z,100.00
2022-10-11T20:26:55.811Z,100.00
2022-10-11T20:29:26.726Z,100.00
2022-10-11T20:31:54.191Z,100.00
2022-10-11T20:34:21.516Z,100.00
2022-10-11T20:36:49.478Z,100.00
2022-10-11T20:39:17.271Z,100.00
2022-10-11T20:41:44.617Z,100.00
2022-10-11T20:44:13.400Z,100.00
2022-10-11T20:46:40.804Z,100.00
2022-10-11T20:49:11.508Z,100.00
2022-10-11T20:51:40.385Z,100.00
2022-10-11T20:54:08.098Z,100.00
2022-10-11T20:56:35.932Z,100.00
2022-10-11T20:59:03.568Z,100.00
2022-10-11T21:01:37.238Z,100.00
2022-10-11T21:04:05.136Z,100.00
2022-10-11T21:06:34.305Z,100.00
2022-10-11T21:09:01.901Z,100.00
2022-10-11T21:11:31.603Z,100.00
2022-10-11T21:14:00.621Z,100.00
2022-10-11T21:16:28.701Z,100.00
2022-10-11T21:18:58.309Z,100.00
2022-10-11T21:21:26.680Z,100.00
2022-10-11T21:23:59.342Z,100.00
2022-10-11T21:26:27.738Z,100.00
2022-10-11T21:28:55.234Z,100.00
2022-10-11T21:31:23.910Z,100.00
2022-10-11T21:33:51.424Z,100.00
2022-10-11T21:36:24.996Z,100.00
2022-10-11T21:38:53.812Z,100.00
2022-10-11T21:41:23.988Z,100.00
2022-10-11T21:43:51.753Z,100.00
2022-10-11T21:46:47.551Z,100.00
2022-10-11T21:49:15.544Z,100.00
2022-10-11T21:51:43.017Z,100.00
2022-10-11T21:54:10.866Z,100.00
2022-10-11T21:56:38.198Z,100.00
2022-10-11T21:59:08.076Z,100.00
2022-10-11T22:01:38.627Z,100.00
2022-10-11T22:04:07.779Z,100.00
2022-10-11T22:06:36.009Z,100.00
2022-10-11T22:09:04.226Z,100.00
2022-10-11T22:11:31.926Z,100.00
2022-10-11T22:13:59.322Z,100.00
2022-10-11T22:16:26.660Z,100.00
2022-10-11T22:18:54.599Z,100.00
2022-10-11T22:21:23.726Z,100.00
2022-10-11T22:23:53.146Z,100.00
2022-10-11T22:26:26.253Z,100.00
2022-10-11T22:28:53.831Z,100.00
2022-10-11T22:31:23.436Z,100.00
2022-10-11T22:33:58.495Z,100.00
2022-10-11T22:36:26.857Z,100.00
2022-10-11T22:38:54.431Z,99.31
2022-10-11T22:41:22.051Z,98.51
2022-10-11T22:43:50.095Z,98.14
2022-10-11T22:46:17.661Z,99.54
2022-10-11T22:48:44.948Z,99.98
2022-10-11T22:51:12.440Z,99.45
2022-10-11T22:53:41.198Z,100.00
2022-10-11T22:56:09.174Z,100.00
2022-10-11T22:58:36.777Z,100.00
2022-10-11T23:01:09.131Z,99.37
2022-10-11T23:03:36.719Z,97.91
2022-10-11T23:06:04.378Z,96.83
2022-10-11T23:08:31.821Z,96.69
2022-10-11T23:11:04.447Z,96.98
2022-10-11T23:13:31.810Z,95.82
2022-10-11T23:15:59.161Z,95.76
2022-10-11T23:18:26.482Z,94.43
2022-10-11T23:20:53.823Z,93.56
2022-10-11T23:23:21.220Z,93.48
2022-10-11T23:25:48.486Z,92.77
2022-10-11T23:28:15.948Z,93.27
2022-10-11T23:30:43.280Z,94.53
2022-10-11T23:33:10.740Z,92.23
2022-10-11T23:35:38.035Z,92.61
2022-10-11T23:38:05.485Z,91.62
2022-10-11T23:40:33.783Z,92.55
2022-10-11T23:43:01.133Z,93.42
2022-10-11T23:45:28.664Z,93.92
2022-10-11T23:47:56.137Z,93.82
2022-10-11T23:50:25.026Z,93.65
2022-10-11T23:52:52.510Z,92.96
2022-10-11T23:55:19.857Z,92.17
2022-10-11T23:57:47.243Z,92.85
